Reunion, Florida
Current Conditions -  °F | °C
As of 7:50 PM on Thursday 18 Dec 2014 (Local Time) from KISM Reporting Station
Clear Clear  
Wind Chill: 55°   Ceiling: Unl
Heat Index: 55°   Visibility: 10mi
Dew Point: 52°   Wind: 0mph
Humidity: 88%   Direction: NA
Pressure: 30.12"   Gusts: NA
Location:  28.295°N, 81.6129°W
Report Text: KISM 190050Z 000000KT 10SM SKC 13/11 A3012
Loading
Personal Weather Stations






























Interactive Weather Map New forecast layout! Learn more

10-Day Weather Forecast

Advertisements
Track Severe Weather on mobile